sensor_id;sensor_type;location;lat;lon;timestamp;pressure;altitude;pressure_sealevel;temperature;humidity
50710;BME280;37033;49.994;21.992;2024-01-10T00:00:49;101146.27;;;-17.01;74.65
50710;BME280;37033;49.994;21.992;2024-01-10T00:03:40;101150.23;;;-16.99;74.65
50710;BME280;37033;49.994;21.992;2024-01-10T00:06:11;101153.51;;;-16.98;74.69
50710;BME280;37033;49.994;21.992;2024-01-10T00:08:41;101152.79;;;-16.96;74.81
50710;BME280;37033;49.994;21.992;2024-01-10T00:11:12;101153.29;;;-16.95;74.65
50710;BME280;37033;49.994;21.992;2024-01-10T00:13:43;101155.37;;;-16.95;74.69
50710;BME280;37033;49.994;21.992;2024-01-10T00:16:15;101151.04;;;-16.96;74.52
50710;BME280;37033;49.994;21.992;2024-01-10T00:18:46;101155.71;;;-16.95;74.56
50710;BME280;37033;49.994;21.992;2024-01-10T00:21:16;101156.56;;;-16.94;74.63
50710;BME280;37033;49.994;21.992;2024-01-10T00:23:47;101150.52;;;-16.95;74.54
50710;BME280;37033;49.994;21.992;2024-01-10T00:26:18;101148.13;;;-16.98;74.45
50710;BME280;37033;49.994;21.992;2024-01-10T00:28:49;101144.52;;;-17.00;74.34
50710;BME280;37033;49.994;21.992;2024-01-10T00:31:20;101140.23;;;-17.03;74.51
50710;BME280;37033;49.994;21.992;2024-01-10T00:33:50;101132.30;;;-17.05;74.36
50710;BME280;37033;49.994;21.992;2024-01-10T00:36:21;101140.84;;;-17.08;74.41
50710;BME280;37033;49.994;21.992;2024-01-10T00:38:52;101147.45;;;-17.09;74.53
50710;BME280;37033;49.994;21.992;2024-01-10T00:41:22;101146.90;;;-17.08;74.43
50710;BME280;37033;49.994;21.992;2024-01-10T00:43:53;101139.66;;;-17.11;74.48
50710;BME280;37033;49.994;21.992;2024-01-10T00:46:24;101137.85;;;-17.18;74.50
50710;BME280;37033;49.994;21.992;2024-01-10T00:48:54;101145.86;;;-17.19;74.49
50710;BME280;37033;49.994;21.992;2024-01-10T00:51:25;101142.02;;;-17.18;74.72
50710;BME280;37033;49.994;21.992;2024-01-10T00:53:56;101143.35;;;-17.15;74.76
50710;BME280;37033;49.994;21.992;2024-01-10T00:56:27;101139.36;;;-17.14;74.70
50710;BME280;37033;49.994;21.992;2024-01-10T00:58:57;101139.73;;;-17.16;74.67
50710;BME280;37033;49.994;21.992;2024-01-10T01:01:28;101139.23;;;-17.17;74.68
50710;BME280;37033;49.994;21.992;2024-01-10T01:03:59;101139.77;;;-17.18;74.66
50710;BME280;37033;49.994;21.992;2024-01-10T01:06:29;101142.58;;;-17.20;74.51
50710;BME280;37033;49.994;21.992;2024-01-10T01:09:00;101138.62;;;-17.23;74.55
50710;BME280;37033;49.994;21.992;2024-01-10T01:11:31;101138.66;;;-17.25;74.52
50710;BME280;37033;49.994;21.992;2024-01-10T01:14:02;101139.19;;;-17.26;74.70
50710;BME280;37033;49.994;21.992;2024-01-10T01:16:33;101139.54;;;-17.25;74.69
50710;BME280;37033;49.994;21.992;2024-01-10T01:19:04;101141.40;;;-17.23;74.80
50710;BME280;37033;49.994;21.992;2024-01-10T01:21:34;101134.80;;;-17.21;74.76
50710;BME280;37033;49.994;21.992;2024-01-10T01:24:05;101128.80;;;-17.26;74.58
50710;BME280;37033;49.994;21.992;2024-01-10T01:26:36;101131.29;;;-17.31;74.63
50710;BME280;37033;49.994;21.992;2024-01-10T01:29:07;101130.60;;;-17.31;74.70
50710;BME280;37033;49.994;21.992;2024-01-10T01:31:38;101127.81;;;-17.31;74.76
50710;BME280;37033;49.994;21.992;2024-01-10T01:34:09;101130.39;;;-17.28;74.74
50710;BME280;37033;49.994;21.992;2024-01-10T01:36:39;101124.48;;;-17.26;74.78
50710;BME280;37033;49.994;21.992;2024-01-10T01:39:10;101118.73;;;-17.26;74.73
50710;BME280;37033;49.994;21.992;2024-01-10T01:41:42;101119.13;;;-17.29;74.57
50710;BME280;37033;49.994;21.992;2024-01-10T01:44:13;101119.32;;;-17.30;74.73
50710;BME280;37033;49.994;21.992;2024-01-10T01:46:44;101116.05;;;-17.33;74.64
50710;BME280;37033;49.994;21.992;2024-01-10T01:49:16;101113.66;;;-17.34;74.63
50710;BME280;37033;49.994;21.992;2024-01-10T01:51:47;101107.45;;;-17.35;74.59
50710;BME280;37033;49.994;21.992;2024-01-10T01:54:18;101103.50;;;-17.38;74.61
50710;BME280;37033;49.994;21.992;2024-01-10T01:56:50;101101.30;;;-17.41;74.74
50710;BME280;37033;49.994;21.992;2024-01-10T01:59:21;101101.69;;;-17.44;74.82
50710;BME280;37033;49.994;21.992;2024-01-10T02:01:52;101103.95;;;-17.45;74.82
50710;BME280;37033;49.994;21.992;2024-01-10T02:04:23;101103.60;;;-17.44;74.73
50710;BME280;37033;49.994;21.992;2024-01-10T02:06:54;101101.81;;;-17.42;74.94
50710;BME280;37033;49.994;21.992;2024-01-10T02:09:25;101102.48;;;-17.39;74.93
50710;BME280;37033;49.994;21.992;2024-01-10T02:11:56;101106.96;;;-17.39;74.89
50710;BME280;37033;49.994;21.992;2024-01-10T02:14:27;101107.79;;;-17.36;74.96
50710;BME280;37033;49.994;21.992;2024-01-10T02:16:58;101104.98;;;-17.33;74.90
50710;BME280;37033;49.994;21.992;2024-01-10T02:19:29;101104.95;;;-17.30;75.06
50710;BME280;37033;49.994;21.992;2024-01-10T02:22:01;101107.89;;;-17.30;74.87
50710;BME280;37033;49.994;21.992;2024-01-10T02:24:34;101103.02;;;-17.28;74.77
50710;BME280;37033;49.994;21.992;2024-01-10T02:27:04;101098.51;;;-17.28;74.81
50710;BME280;37033;49.994;21.992;2024-01-10T02:29:36;101094.05;;;-17.32;74.71
50710;BME280;37033;49.994;21.992;2024-01-10T02:32:07;101095.67;;;-17.37;74.58
50710;BME280;37033;49.994;21.992;2024-01-10T02:34:38;101096.40;;;-17.39;74.75
50710;BME280;37033;49.994;21.992;2024-01-10T02:37:09;101096.09;;;-17.41;74.72
50710;BME280;37033;49.994;21.992;2024-01-10T02:39:39;101093.30;;;-17.40;74.85
50710;BME280;37033;49.994;21.992;2024-01-10T02:42:10;101093.82;;;-17.40;74.83
50710;BME280;37033;49.994;21.992;2024-01-10T02:44:41;101098.84;;;-17.40;74.85
50710;BME280;37033;49.994;21.992;2024-01-10T02:47:12;101097.10;;;-17.39;74.80
50710;BME280;37033;49.994;21.992;2024-01-10T02:49:43;101098.27;;;-17.37;74.82
50710;BME280;37033;49.994;21.992;2024-01-10T02:52:13;101096.33;;;-17.33;74.96
50710;BME280;37033;49.994;21.992;2024-01-10T02:54:45;101094.38;;;-17.30;74.94
50710;BME280;37033;49.994;21.992;2024-01-10T02:57:15;101093.52;;;-17.32;74.85
50710;BME280;37033;49.994;21.992;2024-01-10T02:59:46;101090.95;;;-17.34;74.82
50710;BME280;37033;49.994;21.992;2024-01-10T03:02:17;101090.83;;;-17.37;74.74
50710;BME280;37033;49.994;21.992;2024-01-10T03:04:47;101091.87;;;-17.37;74.95
50710;BME280;37033;49.994;21.992;2024-01-10T03:07:18;101092.38;;;-17.35;75.01
50710;BME280;37033;49.994;21.992;2024-01-10T03:09:49;101086.80;;;-17.33;75.00
50710;BME280;37033;49.994;21.992;2024-01-10T03:12:20;101094.93;;;-17.32;74.83
50710;BME280;37033;49.994;21.992;2024-01-10T03:14:50;101089.55;;;-17.32;74.90
50710;BME280;37033;49.994;21.992;2024-01-10T03:17:21;101082.41;;;-17.31;75.02
50710;BME280;37033;49.994;21.992;2024-01-10T03:19:52;101076.68;;;-17.29;74.83
50710;BME280;37033;49.994;21.992;2024-01-10T03:22:22;101076.91;;;-17.33;74.74
50710;BME280;37033;49.994;21.992;2024-01-10T03:24:53;101076.11;;;-17.37;74.75
50710;BME280;37033;49.994;21.992;2024-01-10T03:27:24;101073.34;;;-17.38;74.90
50710;BME280;37033;49.994;21.992;2024-01-10T03:29:55;101077.14;;;-17.38;74.99
50710;BME280;37033;49.994;21.992;2024-01-10T03:32:26;101074.69;;;-17.35;74.98
50710;BME280;37033;49.994;21.992;2024-01-10T03:34:56;101072.60;;;-17.34;75.09
50710;BME280;37033;49.994;21.992;2024-01-10T03:37:27;101070.54;;;-17.35;74.95
50710;BME280;37033;49.994;21.992;2024-01-10T03:39:58;101066.91;;;-17.36;74.97
50710;BME280;37033;49.994;21.992;2024-01-10T03:42:28;101065.02;;;-17.38;74.76
50710;BME280;37033;49.994;21.992;2024-01-10T03:44:59;101069.39;;;-17.40;74.94
50710;BME280;37033;49.994;21.992;2024-01-10T03:47:30;101072.31;;;-17.38;75.07
50710;BME280;37033;49.994;21.992;2024-01-10T03:50:01;101070.73;;;-17.37;75.14
50710;BME280;37033;49.994;21.992;2024-01-10T03:52:32;101069.20;;;-17.39;75.07
50710;BME280;37033;49.994;21.992;2024-01-10T03:55:03;101073.36;;;-17.38;75.09
50710;BME280;37033;49.994;21.992;2024-01-10T03:57:33;101071.24;;;-17.36;75.27
50710;BME280;37033;49.994;21.992;2024-01-10T04:00:05;101071.02;;;-17.33;75.20
50710;BME280;37033;49.994;21.992;2024-01-10T04:02:37;101070.63;;;-17.29;75.19
50710;BME280;37033;49.994;21.992;2024-01-10T04:05:09;101068.83;;;-17.25;75.22
50710;BME280;37033;49.994;21.992;2024-01-10T04:07:42;101073.98;;;-17.23;75.32
50710;BME280;37033;49.994;21.992;2024-01-10T04:10:14;101066.36;;;-17.22;75.06
50710;BME280;37033;49.994;21.992;2024-01-10T04:12:45;101061.70;;;-17.24;75.03
50710;BME280;37033;49.994;21.992;2024-01-10T04:15:15;101060.34;;;-17.26;75.12
50710;BME280;37033;49.994;21.992;2024-01-10T04:17:47;101059.98;;;-17.24;74.98
50710;BME280;37033;49.994;21.992;2024-01-10T04:20:18;101059.64;;;-17.25;75.11
50710;BME280;37033;49.994;21.992;2024-01-10T04:22:48;101060.93;;;-17.30;74.96
50710;BME280;37033;49.994;21.992;2024-01-10T04:25:19;101059.41;;;-17.33;74.96
50710;BME280;37033;49.994;21.992;2024-01-10T04:27:50;101055.07;;;-17.32;74.92
50710;BME280;37033;49.994;21.992;2024-01-10T04:30:21;101050.73;;;-17.32;75.17
50710;BME280;37033;49.994;21.992;2024-01-10T04:32:52;101048.97;;;-17.30;75.17
50710;BME280;37033;49.994;21.992;2024-01-10T04:35:23;101048.27;;;-17.31;75.07
50710;BME280;37033;49.994;21.992;2024-01-10T04:37:54;101050.56;;;-17.32;74.99
50710;BME280;37033;49.994;21.992;2024-01-10T04:40:24;101052.16;;;-17.35;74.94
50710;BME280;37033;49.994;21.992;2024-01-10T04:42:55;101049.95;;;-17.38;74.89
50710;BME280;37033;49.994;21.992;2024-01-10T04:45:26;101049.81;;;-17.39;74.87
50710;BME280;37033;49.994;21.992;2024-01-10T04:47:56;101049.46;;;-17.39;74.90
50710;BME280;37033;49.994;21.992;2024-01-10T04:50:27;101048.77;;;-17.40;74.96
50710;BME280;37033;49.994;21.992;2024-01-10T04:52:58;101045.34;;;-17.42;74.96
50710;BME280;37033;49.994;21.992;2024-01-10T04:55:28;101049.88;;;-17.44;74.88
50710;BME280;37033;49.994;21.992;2024-01-10T04:57:59;101044.38;;;-17.47;74.94
50710;BME280;37033;49.994;21.992;2024-01-10T05:00:30;101048.23;;;-17.51;74.85
50710;BME280;37033;49.994;21.992;2024-01-10T05:03:00;101059.70;;;-17.52;74.84
50710;BME280;37033;49.994;21.992;2024-01-10T05:05:31;101060.39;;;-17.52;74.88
50710;BME280;37033;49.994;21.992;2024-01-10T05:08:02;101062.98;;;-17.52;74.92
50710;BME280;37033;49.994;21.992;2024-01-10T05:10:33;101067.84;;;-17.51;75.07
50710;BME280;37033;49.994;21.992;2024-01-10T05:13:04;101067.30;;;-17.50;75.10
50710;BME280;37033;49.994;21.992;2024-01-10T05:15:35;101067.44;;;-17.48;75.08
50710;BME280;37033;49.994;21.992;2024-01-10T05:18:06;101068.63;;;-17.46;75.08
50710;BME280;37033;49.994;21.992;2024-01-10T05:20:36;101064.73;;;-17.41;75.23
50710;BME280;37033;49.994;21.992;2024-01-10T05:23:07;101059.75;;;-17.11;76.20
50710;BME280;37033;49.994;21.992;2024-01-10T05:25:38;101055.43;;;-17.01;75.82
50710;BME280;37033;49.994;21.992;2024-01-10T05:28:09;101052.89;;;-17.05;75.33
50710;BME280;37033;49.994;21.992;2024-01-10T05:30:39;101051.84;;;-17.14;75.04
50710;BME280;37033;49.994;21.992;2024-01-10T05:33:12;101055.43;;;-17.22;74.96
50710;BME280;37033;49.994;21.992;2024-01-10T05:35:43;101058.65;;;-17.29;75.01
50710;BME280;37033;49.994;21.992;2024-01-10T05:38:14;101062.35;;;-17.32;75.09
50710;BME280;37033;49.994;21.992;2024-01-10T05:40:45;101067.75;;;-17.34;75.02
50710;BME280;37033;49.994;21.992;2024-01-10T05:43:16;101061.50;;;-17.34;75.22
50710;BME280;37033;49.994;21.992;2024-01-10T05:45:46;101057.75;;;-17.38;75.24
50710;BME280;37033;49.994;21.992;2024-01-10T05:48:17;101060.19;;;-17.39;75.33
50710;BME280;37033;49.994;21.992;2024-01-10T05:50:48;101059.13;;;-17.38;75.38
50710;BME280;37033;49.994;21.992;2024-01-10T05:53:20;101059.83;;;-17.38;75.43
50710;BME280;37033;49.994;21.992;2024-01-10T05:55:51;101059.64;;;-17.36;75.42
50710;BME280;37033;49.994;21.992;2024-01-10T05:58:22;101058.89;;;-17.33;75.54
50710;BME280;37033;49.994;21.992;2024-01-10T06:00:52;101057.46;;;-17.30;75.58
50710;BME280;37033;49.994;21.992;2024-01-10T06:03:24;101056.38;;;-17.28;75.51
50710;BME280;37033;49.994;21.992;2024-01-10T06:05:55;101056.21;;;-17.28;75.39
50710;BME280;37033;49.994;21.992;2024-01-10T06:08:25;101053.09;;;-17.27;75.51
50710;BME280;37033;49.994;21.992;2024-01-10T06:10:57;101049.46;;;-17.28;75.41
50710;BME280;37033;49.994;21.992;2024-01-10T06:13:28;101054.52;;;-17.29;75.31
50710;BME280;37033;49.994;21.992;2024-01-10T06:15:59;101057.26;;;-17.28;75.46
50710;BME280;37033;49.994;21.992;2024-01-10T06:18:31;101049.44;;;-17.26;75.49
50710;BME280;37033;49.994;21.992;2024-01-10T06:21:03;101051.52;;;-17.26;75.47
50710;BME280;37033;49.994;21.992;2024-01-10T06:23:33;101060.34;;;-17.25;75.45
50710;BME280;37033;49.994;21.992;2024-01-10T06:26:05;101063.63;;;-17.25;75.47
50710;BME280;37033;49.994;21.992;2024-01-10T06:28:35;101057.71;;;-17.24;75.47
50710;BME280;37033;49.994;21.992;2024-01-10T06:31:06;101060.36;;;-17.27;75.31
50710;BME280;37033;49.994;21.992;2024-01-10T06:33:37;101062.61;;;-17.27;75.34
50710;BME280;37033;49.994;21.992;2024-01-10T06:36:08;101065.88;;;-17.25;75.45
50710;BME280;37033;49.994;21.992;2024-01-10T06:38:41;101069.81;;;-17.22;75.40
50710;BME280;37033;49.994;21.992;2024-01-10T06:41:11;101068.73;;;-17.19;75.60
50710;BME280;37033;49.994;21.992;2024-01-10T06:43:43;101068.52;;;-17.16;75.57
50710;BME280;37033;49.994;21.992;2024-01-10T06:46:13;101071.80;;;-17.15;75.35
50710;BME280;37033;49.994;21.992;2024-01-10T06:48:44;101067.29;;;-17.15;75.35
50710;BME280;37033;49.994;21.992;2024-01-10T06:51:15;101060.77;;;-17.19;75.21
50710;BME280;37033;49.994;21.992;2024-01-10T06:53:46;101060.11;;;-17.22;75.16
50710;BME280;37033;49.994;21.992;2024-01-10T06:56:17;101054.20;;;-17.21;75.30
50710;BME280;37033;49.994;21.992;2024-01-10T06:58:48;101049.82;;;-17.18;75.45
50710;BME280;37033;49.994;21.992;2024-01-10T07:01:18;101047.02;;;-17.16;75.46
50710;BME280;37033;49.994;21.992;2024-01-10T07:03:51;101043.34;;;-17.14;75.50
50710;BME280;37033;49.994;21.992;2024-01-10T07:06:24;101050.98;;;-17.15;75.35
50710;BME280;37033;49.994;21.992;2024-01-10T07:08:55;101048.85;;;-17.12;75.56
50710;BME280;37033;49.994;21.992;2024-01-10T07:11:25;101053.45;;;-17.07;75.55
50710;BME280;37033;49.994;21.992;2024-01-10T07:13:57;101053.41;;;-17.05;75.70
50710;BME280;37033;49.994;21.992;2024-01-10T07:16:28;101058.72;;;-17.01;75.70
50710;BME280;37033;49.994;21.992;2024-01-10T07:18:59;101054.68;;;-16.98;75.57
50710;BME280;37033;49.994;21.992;2024-01-10T07:21:30;101057.80;;;-16.97;75.68
50710;BME280;37033;49.994;21.992;2024-01-10T07:24:01;101060.16;;;-16.94;75.68
50710;BME280;37033;49.994;21.992;2024-01-10T07:26:33;101062.63;;;-16.86;75.73
50710;BME280;37033;49.994;21.992;2024-01-10T07:29:03;101056.23;;;-16.79;75.76
50710;BME280;37033;49.994;21.992;2024-01-10T07:31:37;101058.02;;;-16.72;75.96
50710;BME280;37033;49.994;21.992;2024-01-10T07:34:08;101058.35;;;-16.62;76.13
50710;BME280;37033;49.994;21.992;2024-01-10T07:36:44;101054.61;;;-16.57;75.97
50710;BME280;37033;49.994;21.992;2024-01-10T07:39:14;101055.35;;;-16.50;75.88
50710;BME280;37033;49.994;21.992;2024-01-10T07:41:47;101051.23;;;-16.43;75.76
50710;BME280;37033;49.994;21.992;2024-01-10T07:44:19;101055.31;;;-16.38;75.69
50710;BME280;37033;49.994;21.992;2024-01-10T07:46:51;101059.52;;;-16.31;75.84
50710;BME280;37033;49.994;21.992;2024-01-10T07:49:23;101054.57;;;-16.27;75.75
50710;BME280;37033;49.994;21.992;2024-01-10T07:51:54;101057.13;;;-16.25;75.67
50710;BME280;37033;49.994;21.992;2024-01-10T07:54:24;101057.71;;;-16.20;75.85
50710;BME280;37033;49.994;21.992;2024-01-10T07:56:55;101053.59;;;-16.13;75.94
50710;BME280;37033;49.994;21.992;2024-01-10T07:59:26;101050.83;;;-16.06;76.01
50710;BME280;37033;49.994;21.992;2024-01-10T08:01:59;101052.24;;;-15.98;75.98
50710;BME280;37033;49.994;21.992;2024-01-10T08:04:30;101050.08;;;-15.94;76.07
50710;BME280;37033;49.994;21.992;2024-01-10T08:07:00;101045.61;;;-15.88;76.07
50710;BME280;37033;49.994;21.992;2024-01-10T08:09:31;101041.48;;;-15.82;76.05
50710;BME280;37033;49.994;21.992;2024-01-10T08:12:02;101040.98;;;-15.76;76.10
50710;BME280;37033;49.994;21.992;2024-01-10T08:14:33;101047.22;;;-15.68;76.02
50710;BME280;37033;49.994;21.992;2024-01-10T08:17:04;101039.55;;;-15.59;76.07
50710;BME280;37033;49.994;21.992;2024-01-10T08:19:35;101039.55;;;-15.52;75.99
50710;BME280;37033;49.994;21.992;2024-01-10T08:22:07;101035.73;;;-15.44;75.98
50710;BME280;37033;49.994;21.992;2024-01-10T08:24:38;101043.58;;;-15.38;76.11
50710;BME280;37033;49.994;21.992;2024-01-10T08:27:09;101041.88;;;-15.32;76.29
50710;BME280;37033;49.994;21.992;2024-01-10T08:29:40;101040.27;;;-15.23;76.32
50710;BME280;37033;49.994;21.992;2024-01-10T08:32:11;101044.11;;;-15.17;76.16
50710;BME280;37033;49.994;21.992;2024-01-10T08:34:42;101047.60;;;-15.10;76.41
50710;BME280;37033;49.994;21.992;2024-01-10T08:37:14;101040.46;;;-15.03;76.35
50710;BME280;37033;49.994;21.992;2024-01-10T08:39:46;101043.73;;;-14.95;76.27
50710;BME280;37033;49.994;21.992;2024-01-10T08:42:17;101043.02;;;-14.87;76.37
50710;BME280;37033;49.994;21.992;2024-01-10T08:44:47;101042.66;;;-14.80;76.41
50710;BME280;37033;49.994;21.992;2024-01-10T08:47:19;101044.23;;;-14.73;76.29
50710;BME280;37033;49.994;21.992;2024-01-10T08:49:50;101042.31;;;-14.66;76.45
50710;BME280;37033;49.994;21.992;2024-01-10T08:52:21;101038.29;;;-14.59;76.21
50710;BME280;37033;49.994;21.992;2024-01-10T08:54:52;101035.80;;;-14.52;76.23
50710;BME280;37033;49.994;21.992;2024-01-10T08:57:23;101039.63;;;-14.45;76.15
50710;BME280;37033;49.994;21.992;2024-01-10T08:59:55;101037.70;;;-14.39;76.33
50710;BME280;37033;49.994;21.992;2024-01-10T09:02:25;101034.52;;;-14.30;76.22
50710;BME280;37033;49.994;21.992;2024-01-10T09:04:57;101040.92;;;-14.23;76.48
50710;BME280;37033;49.994;21.992;2024-01-10T09:07:27;101036.53;;;-14.16;76.22
50710;BME280;37033;49.994;21.992;2024-01-10T09:09:59;101037.92;;;-14.09;76.25
50710;BME280;37033;49.994;21.992;2024-01-10T09:12:30;101041.14;;;-14.00;76.35
50710;BME280;37033;49.994;21.992;2024-01-10T09:15:01;101034.73;;;-13.90;76.50
50710;BME280;37033;49.994;21.992;2024-01-10T09:17:32;101035.11;;;-13.79;76.57
50710;BME280;37033;49.994;21.992;2024-01-10T09:20:02;101038.70;;;-13.70;76.34
50710;BME280;37033;49.994;21.992;2024-01-10T09:22:33;101034.13;;;-13.63;76.20
50710;BME280;37033;49.994;21.992;2024-01-10T09:25:05;101033.86;;;-13.55;76.36
50710;BME280;37033;49.994;21.992;2024-01-10T09:27:36;101035.46;;;-13.45;76.73
50710;BME280;37033;49.994;21.992;2024-01-10T09:30:08;101037.08;;;-13.35;76.69
50710;BME280;37033;49.994;21.992;2024-01-10T09:32:39;101037.86;;;-13.06;77.79
50710;BME280;37033;49.994;21.992;2024-01-10T09:35:10;101037.11;;;-12.94;77.21
50710;BME280;37033;49.994;21.992;2024-01-10T09:37:41;101031.97;;;-12.86;77.13
50710;BME280;37033;49.994;21.992;2024-01-10T09:40:15;101027.90;;;-12.79;76.99
50710;BME280;37033;49.994;21.992;2024-01-10T09:42:45;101021.23;;;-12.74;76.76
50710;BME280;37033;49.994;21.992;2024-01-10T09:45:20;101018.55;;;-12.67;76.79
50710;BME280;37033;49.994;21.992;2024-01-10T09:47:54;101021.31;;;-12.56;76.96
50710;BME280;37033;49.994;21.992;2024-01-10T09:50:25;101017.08;;;-12.44;77.09
50710;BME280;37033;49.994;21.992;2024-01-10T09:53:01;101014.98;;;-12.35;76.69
50710;BME280;37033;49.994;21.992;2024-01-10T09:55:37;101012.79;;;-12.27;76.60
50710;BME280;37033;49.994;21.992;2024-01-10T09:58:08;101018.41;;;-12.19;76.63
50710;BME280;37033;49.994;21.992;2024-01-10T10:00:41;101017.04;;;-12.10;76.77
50710;BME280;37033;49.994;21.992;2024-01-10T10:03:12;101010.52;;;-11.94;77.01
50710;BME280;37033;49.994;21.992;2024-01-10T10:05:46;101014.33;;;-11.81;76.79
50710;BME280;37033;49.994;21.992;2024-01-10T10:08:17;101014.09;;;-11.74;76.81
50710;BME280;37033;49.994;21.992;2024-01-10T10:10:51;101013.77;;;-11.66;76.64
50710;BME280;37033;49.994;21.992;2024-01-10T10:13:29;101013.83;;;-11.58;76.68
50710;BME280;37033;49.994;21.992;2024-01-10T10:16:00;101015.23;;;-11.50;76.92
50710;BME280;37033;49.994;21.992;2024-01-10T10:18:37;101009.27;;;-11.40;76.85
50710;BME280;37033;49.994;21.992;2024-01-10T10:21:12;101008.02;;;-11.31;77.00
50710;BME280;37033;49.994;21.992;2024-01-10T10:23:56;101000.66;;;-11.22;76.81
50710;BME280;37033;49.994;21.992;2024-01-10T10:26:28;100991.89;;;-11.13;76.77
50710;BME280;37033;49.994;21.992;2024-01-10T10:28:58;100985.93;;;-11.04;76.83
50710;BME280;37033;49.994;21.992;2024-01-10T10:31:30;100979.59;;;-10.95;76.93
50710;BME280;37033;49.994;21.992;2024-01-10T10:34:02;100977.27;;;-10.86;76.81
50710;BME280;37033;49.994;21.992;2024-01-10T10:36:33;100973.32;;;-10.76;77.00
50710;BME280;37033;49.994;21.992;2024-01-10T10:39:04;100965.55;;;-10.66;76.89
50710;BME280;37033;49.994;21.992;2024-01-10T10:41:43;100966.32;;;-10.55;76.87
50710;BME280;37033;49.994;21.992;2024-01-10T10:44:19;100963.42;;;-10.45;76.81
50710;BME280;37033;49.994;21.992;2024-01-10T10:46:54;100966.62;;;-10.34;76.86
50710;BME280;37033;49.994;21.992;2024-01-10T10:49:31;100968.02;;;-10.24;76.76
50710;BME280;37033;49.994;21.992;2024-01-10T10:52:03;100963.36;;;-10.14;77.11
50710;BME280;37033;49.994;21.992;2024-01-10T10:54:35;100960.35;;;-10.05;77.02
50710;BME280;37033;49.994;21.992;2024-01-10T10:57:07;100957.81;;;-9.96;77.04
50710;BME280;37033;49.994;21.992;2024-01-10T10:59:39;100956.17;;;-9.87;76.95
50710;BME280;37033;49.994;21.992;2024-01-10T11:02:11;100955.52;;;-9.77;76.92
50710;BME280;37033;49.994;21.992;2024-01-10T11:04:42;100949.98;;;-9.67;76.84
50710;BME280;37033;49.994;21.992;2024-01-10T11:07:13;100951.86;;;-9.59;76.82
50710;BME280;37033;49.994;21.992;2024-01-10T11:09:45;100954.48;;;-9.52;76.93
50710;BME280;37033;49.994;21.992;2024-01-10T11:12:27;100950.83;;;-9.42;76.92
50710;BME280;37033;49.994;21.992;2024-01-10T11:15:14;100942.99;;;-9.32;76.76
50710;BME280;37033;49.994;21.992;2024-01-10T11:18:09;100941.99;;;-9.23;76.78
50710;BME280;37033;49.994;21.992;2024-01-10T11:20:59;100938.23;;;-9.14;76.44
50710;BME280;37033;49.994;21.992;2024-01-10T11:23:40;100935.93;;;-9.06;76.48
50710;BME280;37033;49.994;21.992;2024-01-10T11:26:11;100934.17;;;-9.00;76.42
50710;BME280;37033;49.994;21.992;2024-01-10T11:28:43;100929.98;;;-8.93;76.53
50710;BME280;37033;49.994;21.992;2024-01-10T11:31:15;100925.02;;;-8.85;76.45
50710;BME280;37033;49.994;21.992;2024-01-10T11:33:46;100928.11;;;-8.77;76.40
50710;BME280;37033;49.994;21.992;2024-01-10T11:36:20;100924.70;;;-8.69;76.54
50710;BME280;37033;49.994;21.992;2024-01-10T11:38:59;100925.17;;;-8.61;76.33
50710;BME280;37033;49.994;21.992;2024-01-10T11:41:32;100917.21;;;-8.54;76.49
50710;BME280;37033;49.994;21.992;2024-01-10T11:44:27;100917.02;;;-8.46;76.54
50710;BME280;37033;49.994;21.992;2024-01-10T11:46:58;100913.83;;;-8.37;76.35
50710;BME280;37033;49.994;21.992;2024-01-10T11:49:29;100908.23;;;-8.31;76.31
50710;BME280;37033;49.994;21.992;2024-01-10T11:52:00;100900.86;;;-8.25;76.22
50710;BME280;37033;49.994;21.992;2024-01-10T11:54:41;100901.34;;;-8.17;76.27
50710;BME280;37033;49.994;21.992;2024-01-10T11:57:20;100893.11;;;-8.08;76.13
50710;BME280;37033;49.994;21.992;2024-01-10T11:59:53;100894.77;;;-8.01;76.14
50710;BME280;37033;49.994;21.992;2024-01-10T12:02:24;100892.81;;;-7.94;76.08
50710;BME280;37033;49.994;21.992;2024-01-10T12:04:56;100894.06;;;-7.88;76.26
50710;BME280;37033;49.994;21.992;2024-01-10T12:07:26;100898.81;;;-7.82;75.95
50710;BME280;37033;49.994;21.992;2024-01-10T12:09:57;100893.83;;;-7.77;76.01
50710;BME280;37033;49.994;21.992;2024-01-10T12:12:28;100890.89;;;-7.72;75.97
50710;BME280;37033;49.994;21.992;2024-01-10T12:14:59;100892.37;;;-7.67;75.92
50710;BME280;37033;49.994;21.992;2024-01-10T12:17:30;100892.37;;;-7.61;76.07
50710;BME280;37033;49.994;21.992;2024-01-10T12:20:01;100884.14;;;-7.56;76.21
50710;BME280;37033;49.994;21.992;2024-01-10T12:22:33;100878.98;;;-7.51;76.11
50710;BME280;37033;49.994;21.992;2024-01-10T12:25:07;100878.06;;;-7.45;76.14
50710;BME280;37033;49.994;21.992;2024-01-10T12:27:38;100873.42;;;-7.38;75.95
50710;BME280;37033;49.994;21.992;2024-01-10T12:30:10;100867.33;;;-7.32;75.93
50710;BME280;37033;49.994;21.992;2024-01-10T12:32:41;100861.59;;;-7.28;75.80
50710;BME280;37033;49.994;21.992;2024-01-10T12:35:13;100858.27;;;-7.22;75.64
50710;BME280;37033;49.994;21.992;2024-01-10T12:37:43;100860.41;;;-7.17;75.79
50710;BME280;37033;49.994;21.992;2024-01-10T12:40:23;100858.93;;;-7.10;75.80
50710;BME280;37033;49.994;21.992;2024-01-10T12:43:04;100854.95;;;-7.05;75.47
50710;BME280;37033;49.994;21.992;2024-01-10T12:45:35;100851.33;;;-7.01;75.55
50710;BME280;37033;49.994;21.992;2024-01-10T12:48:07;100847.77;;;-6.97;75.34
50710;BME280;37033;49.994;21.992;2024-01-10T12:50:43;100846.98;;;-6.93;75.27
50710;BME280;37033;49.994;21.992;2024-01-10T12:53:14;100839.23;;;-6.90;75.40